Observations for RONCHI LEGIONARI AB, Italy (LIPQ)

LIPQ 260450Z 34004KT CAVOK 20/18 Q1017  
LIPQ 260420Z 32003KT CAVOK 21/18 Q1017  
LIPQ 260350Z AUTO 36006KT 9999 NCD 20/18 Q1017  
LIPQ 260320Z AUTO VRB02KT 9999 NCD 19/18 Q1017  
LIPQ 260250Z AUTO 31004KT 9999 NCD 21/18 Q1017  
LIPQ 260220Z AUTO VRB02KT 9999 NCD 21/19 Q1017  
LIPQ 260150Z AUTO VRB01KT 9999 NCD 20/18 Q1017  
LIPQ 260120Z AUTO 03003KT 010V070 9999 NCD 22/19 Q1017  
LIPQ 260050Z AUTO 01003KT 9999 NCD 22/19 Q1017  
LIPQ 260020Z AUTO 01003KT 9999 NCD 23/19 Q1017  
LIPQ 252350Z AUTO 02005KT 9999 NCD 23/19 Q1017  
LIPQ 252320Z AUTO 35004KT 300V010 9999 NCD 23/19 Q1017  
LIPQ 252250Z AUTO 35005KT 9999 NCD 23/19 Q1017  
LIPQ 252220Z AUTO 03004KT 340V060 9999 NCD 25/18 Q1017  
LIPQ 252150Z 07007KT 040V100 CAVOK 26/18 Q1017  
LIPQ 252120Z 06006KT 020V090 CAVOK 26/18 Q1017  
LIPQ 252050Z 03004KT 360V090 CAVOK 26/19 Q1017  
LIPQ 252020Z 07006KT 030V100 CAVOK 26/19 Q1017  
LIPQ 251950Z 08007KT CAVOK 27/19 Q1017  
LIPQ 251920Z 08005KT CAVOK 27/18 Q1017  
LIPQ 251850Z 07003KT 030V100 CAVOK 27/18 Q1017  
LIPQ 251820Z 08004KT CAVOK 28/18 Q1017  
LIPQ 251750Z 08003KT 050V110 CAVOK 28/18 Q1016  
LIPQ 251720Z 11009KT CAVOK 30/18 Q1016  
LIPQ 251650Z 12008KT CAVOK 31/18 Q1016  
LIPQ 251620Z 10006KT 060V140 CAVOK 31/17 Q1016  
LIPQ 251550Z 12005KT 080V170 CAVOK 32/18 Q1015  
LIPQ 251520Z 12004KT 050V190 CAVOK 32/17 Q1016  
LIPQ 251450Z 14004KT 060V210 CAVOK 32/17 Q1016  
LIPQ 251420Z 17005KT 100V230 CAVOK 32/18 Q1016  
LIPQ 251350Z 18005KT 150V210 CAVOK 32/18 Q1016  
LIPQ 251320Z 20006KT 160V250 CAVOK 32/18 Q1016  
LIPQ 251250Z 18006KT 150V230 CAVOK 32/17 Q1016  
LIPQ 251220Z 18007KT 150V210 CAVOK 32/18 Q1016  
LIPQ 251150Z 15007KT 120V210 CAVOK 32/16 Q1017  
LIPQ 251120Z 14008KT 110V190 CAVOK 32/16 Q1017  
LIPQ 251050Z 13008KT CAVOK 31/16 Q1017  
LIPQ 251020Z 14008KT 100V190 CAVOK 31/16 Q1017  
LIPQ 250950Z 13010KT 090V160 CAVOK 31/16 Q1017  
LIPQ 250920Z 11008KT 080V140 CAVOK 30/17 Q1017  
LIPQ 250850Z 12008KT 090V160 CAVOK 29/17 Q1017  
LIPQ 250820Z VRB03KT CAVOK 28/17 Q1017  
LIPQ 250750Z 01003KT 300V050 CAVOK 27/18 Q1017  
LIPQ 250720Z 35003KT 310V020 CAVOK 24/17 Q1017  
LIPQ 250650Z 30003KT CAVOK 23/17 Q1017  
LIPQ 250620Z 32003KT CAVOK 21/17 Q1017  
LIPQ 250550Z 34004KT CAVOK 20/17 Q1017  
LIPQ 250520Z 26003KT 230V290 CAVOK 19/16 Q1017  
LIPQ 250450Z VRB02KT CAVOK 18/15 Q1017  
LIPQ 250420Z 29003KT 250V320 CAVOK 18/15 Q1017